createdAt,value
2019-05-05T00:00:48.356Z,17.63
2019-05-05T00:03:18.402Z,19.47
2019-05-05T00:05:48.428Z,16.90
2019-05-05T00:08:16.885Z,16.90
2019-05-05T00:11:05.100Z,15.90
2019-05-05T00:13:41.156Z,15.90
2019-05-05T00:16:27.665Z,21.17
2019-05-05T00:18:57.778Z,19.77
2019-05-05T00:21:26.237Z,22.40
2019-05-05T00:23:55.373Z,21.30
2019-05-05T00:26:24.468Z,23.27
2019-05-05T00:28:55.224Z,21.07
2019-05-05T00:31:24.228Z,21.83
2019-05-05T00:33:54.422Z,23.87
2019-05-05T00:36:24.604Z,21.67
2019-05-05T00:38:55.222Z,20.87
2019-05-05T00:41:25.377Z,21.63
2019-05-05T00:43:55.405Z,19.50
2019-05-05T00:46:41.831Z,21.43
2019-05-05T00:49:10.225Z,22.47
2019-05-05T00:51:38.629Z,19.10
2019-05-05T00:54:07.016Z,18.87
2019-05-05T00:56:35.481Z,25.53
2019-05-05T00:59:11.504Z,25.30
2019-05-05T01:01:57.712Z,24.67
2019-05-05T01:04:36.810Z,23.93
2019-05-05T01:07:05.333Z,25.50
2019-05-05T01:09:35.355Z,26.57
2019-05-05T01:12:05.384Z,27.37
2019-05-05T01:14:34.246Z,30.33
2019-05-05T01:17:05.155Z,24.57
2019-05-05T01:19:34.941Z,28.73
2019-05-05T01:22:04.937Z,26.90
2019-05-05T01:24:34.284Z,25.30
2019-05-05T01:27:04.830Z,28.40
2019-05-05T01:29:34.650Z,31.03
2019-05-05T01:32:05.169Z,23.20
2019-05-05T01:34:35.240Z,26.70
2019-05-05T01:37:05.264Z,30.93
2019-05-05T01:39:38.320Z,27.47
2019-05-05T01:42:11.476Z,29.50
2019-05-05T01:44:39.861Z,29.93
2019-05-05T01:47:08.320Z,29.90
2019-05-05T01:49:36.708Z,28.53
2019-05-05T01:52:05.178Z,25.77
2019-05-05T01:54:35.271Z,25.20
2019-05-05T01:57:05.427Z,33.10
2019-05-05T01:59:35.419Z,32.80
2019-05-05T02:02:05.130Z,25.00
2019-05-05T02:04:34.306Z,28.17
2019-05-05T02:07:05.465Z,27.60
2019-05-05T02:09:35.503Z,30.07
2019-05-05T02:12:05.260Z,28.13
2019-05-05T02:14:35.237Z,24.97
2019-05-05T02:17:05.067Z,28.40
2019-05-05T02:19:35.008Z,29.20
2019-05-05T02:22:05.375Z,27.50
2019-05-05T02:24:35.334Z,28.73
2019-05-05T02:27:05.179Z,23.67
2019-05-05T02:29:38.996Z,23.47
2019-05-05T02:32:21.437Z,29.27
2019-05-05T02:34:51.481Z,32.60
2019-05-05T02:37:19.944Z,27.23
2019-05-05T02:39:57.840Z,32.33
2019-05-05T02:42:21.470Z,22.30
2019-05-05T02:44:54.292Z,24.37
2019-05-05T02:47:29.597Z,24.77
2019-05-05T02:50:01.122Z,25.20
2019-05-05T02:52:34.704Z,22.33
2019-05-05T02:55:05.625Z,27.40
2019-05-05T02:57:35.856Z,20.90
2019-05-05T03:00:08.512Z,22.87
2019-05-05T03:02:38.386Z,23.73
2019-05-05T03:05:06.910Z,24.50
2019-05-05T03:07:37.145Z,19.90
2019-05-05T03:10:08.140Z,23.07
2019-05-05T03:12:39.612Z,23.47
2019-05-05T03:15:09.733Z,24.67
2019-05-05T03:17:38.909Z,24.00
2019-05-05T03:20:09.336Z,23.00
2019-05-05T03:22:38.569Z,23.43
2019-05-05T03:25:07.031Z,25.00
2019-05-05T03:27:36.177Z,25.30
2019-05-05T03:30:07.116Z,28.37
2019-05-05T03:32:36.199Z,28.07
2019-05-05T03:35:05.837Z,25.57
2019-05-05T03:37:34.414Z,23.10
2019-05-05T03:40:05.597Z,26.03
2019-05-05T03:42:44.178Z,24.93
2019-05-05T03:45:16.901Z,26.57
2019-05-05T03:47:46.839Z,28.07
2019-05-05T03:50:15.370Z,31.13
2019-05-05T03:52:45.021Z,28.30
2019-05-05T03:55:14.257Z,28.93
2019-05-05T03:57:44.615Z,29.60
2019-05-05T04:00:35.905Z,35.43
2019-05-05T04:03:05.953Z,33.50
2019-05-05T04:05:38.888Z,38.27
2019-05-05T04:08:08.140Z,43.27
2019-05-05T04:10:37.504Z,39.53
2019-05-05T04:13:05.892Z,33.93
2019-05-05T04:15:36.779Z,30.27
2019-05-05T04:18:06.831Z,33.77
2019-05-05T04:20:35.216Z,36.23
2019-05-05T04:23:03.879Z,25.80
2019-05-05T04:25:34.776Z,27.60
2019-05-05T04:28:04.440Z,25.00
2019-05-05T04:30:33.826Z,28.60
2019-05-05T04:33:03.927Z,24.00
2019-05-05T04:35:33.963Z,28.67
2019-05-05T04:38:04.160Z,26.57
2019-05-05T04:40:34.550Z,27.30
2019-05-05T04:43:03.901Z,22.83
2019-05-05T04:45:34.761Z,21.47
2019-05-05T04:48:11.138Z,21.23
2019-05-05T04:50:44.200Z,24.63
2019-05-05T04:55:55.485Z,21.93
2019-05-05T04:58:24.292Z,19.50
2019-05-05T05:00:54.659Z,22.33
2019-05-05T05:03:37.320Z,19.27
2019-05-05T05:06:07.357Z,15.93
2019-05-05T05:08:35.769Z,18.03
2019-05-05T05:11:04.156Z,17.43
2019-05-05T05:13:34.601Z,21.77
2019-05-05T05:16:04.510Z,17.70
2019-05-05T05:18:34.407Z,13.23
2019-05-05T05:21:03.956Z,17.03
2019-05-05T05:23:34.125Z,16.37
2019-05-05T05:26:05.027Z,17.60
2019-05-05T05:28:34.219Z,15.10
2019-05-05T05:31:04.018Z,15.77
2019-05-05T05:33:34.507Z,17.53
2019-05-05T05:36:04.022Z,11.97
2019-05-05T05:38:34.664Z,18.60
2019-05-05T05:41:10.276Z,17.37
2019-05-05T05:43:40.309Z,17.20
2019-05-05T05:46:28.544Z,14.97
2019-05-05T05:49:04.707Z,11.47
2019-05-05T05:51:34.095Z,13.37
2019-05-05T05:54:03.740Z,13.77
2019-05-05T05:56:34.273Z,12.83
2019-05-05T05:59:03.732Z,11.10
2019-05-05T06:01:34.492Z,14.53
2019-05-05T06:04:04.112Z,9.07
2019-05-05T06:06:34.643Z,10.43
2019-05-05T06:09:04.287Z,9.70
2019-05-05T06:11:34.450Z,12.37
2019-05-05T06:14:04.006Z,10.63
2019-05-05T06:16:34.127Z,8.30
2019-05-05T06:19:03.758Z,13.33
2019-05-05T06:21:33.886Z,10.57
2019-05-05T06:24:04.490Z,13.70
2019-05-05T06:26:34.298Z,10.70
2019-05-05T06:29:04.337Z,10.93
2019-05-05T06:31:34.284Z,12.67
2019-05-05T06:34:03.798Z,9.50
2019-05-05T06:36:34.002Z,11.87
2019-05-05T06:39:04.975Z,9.23
2019-05-05T06:41:35.001Z,12.83
2019-05-05T06:44:05.036Z,16.17
2019-05-05T06:46:40.989Z,18.30
2019-05-05T06:49:09.377Z,14.30
2019-05-05T06:51:37.777Z,18.37
2019-05-05T06:54:06.177Z,15.77
2019-05-05T06:56:34.537Z,20.13
2019-05-05T06:59:04.430Z,15.20
2019-05-05T07:01:33.783Z,18.27
2019-05-05T07:04:03.680Z,15.40
2019-05-05T07:06:34.222Z,16.60
2019-05-05T07:09:02.211Z,15.87
2019-05-05T07:11:30.576Z,17.83
2019-05-05T07:13:58.987Z,16.60
2019-05-05T07:16:27.382Z,17.53
2019-05-05T07:18:55.770Z,14.53
2019-05-05T07:21:24.162Z,14.97
2019-05-05T07:23:54.053Z,18.07
2019-05-05T07:26:23.733Z,16.00
2019-05-05T07:28:54.135Z,15.03
2019-05-05T07:31:23.839Z,15.20
2019-05-05T07:33:54.481Z,12.20
2019-05-05T07:39:18.061Z,17.47
2019-05-05T07:41:46.504Z,16.50
2019-05-05T07:44:25.850Z,14.93
2019-05-05T07:46:45.086Z,17.70
2019-05-05T07:49:13.992Z,23.73
2019-05-05T07:51:44.230Z,15.97
2019-05-05T07:54:14.553Z,12.80
2019-05-05T07:56:44.397Z,12.70
2019-05-05T07:59:14.553Z,16.80
2019-05-05T08:01:46.505Z,10.27
2019-05-05T08:04:13.992Z,13.07
2019-05-05T08:06:44.390Z,14.90
2019-05-05T08:09:14.450Z,13.23
2019-05-05T08:11:43.567Z,13.00
2019-05-05T08:14:14.556Z,17.67
2019-05-05T08:16:44.319Z,15.97
2019-05-05T08:19:17.061Z,10.10
2019-05-05T08:21:45.462Z,12.63
2019-05-05T08:24:15.472Z,16.90
2019-05-05T08:26:48.473Z,12.07
2019-05-05T08:29:30.468Z,16.77
2019-05-05T08:32:04.394Z,14.10
2019-05-05T08:34:33.995Z,15.50
2019-05-05T08:37:04.420Z,12.37
2019-05-05T08:39:46.125Z,12.37
2019-05-05T08:42:14.574Z,15.23
2019-05-05T08:44:44.756Z,15.07
2019-05-05T08:47:13.901Z,14.83
2019-05-05T08:49:44.279Z,14.97
2019-05-05T08:52:14.519Z,11.20
2019-05-05T08:54:44.641Z,18.23
2019-05-05T08:57:14.635Z,15.27
2019-05-05T08:59:43.960Z,12.53
2019-05-05T09:02:15.047Z,15.03
2019-05-05T09:04:44.678Z,10.67
2019-05-05T09:07:13.767Z,12.63
2019-05-05T09:09:44.176Z,11.67
2019-05-05T09:12:13.933Z,17.70
2019-05-05T09:14:44.748Z,14.67
2019-05-05T09:17:13.674Z,12.87
2019-05-05T09:19:42.197Z,11.90
2019-05-05T09:22:10.607Z,12.13
2019-05-05T09:24:58.497Z,11.90
2019-05-05T09:27:34.455Z,15.63
2019-05-05T09:30:04.740Z,18.33
2019-05-05T09:32:34.450Z,15.60
2019-05-05T09:35:04.728Z,14.93
2019-05-05T09:37:34.050Z,20.67
2019-05-05T09:40:04.396Z,12.73
2019-05-05T09:42:34.175Z,16.23
2019-05-05T09:45:04.745Z,16.57
2019-05-05T09:47:34.396Z,17.27
2019-05-05T09:50:05.646Z,21.27
2019-05-05T09:52:34.057Z,16.47
2019-05-05T09:55:03.859Z,18.63
2019-05-05T09:57:34.404Z,17.40
2019-05-05T10:00:08.651Z,14.20
2019-05-05T10:02:37.215Z,18.83
2019-05-05T10:05:07.679Z,14.37
2019-05-05T10:07:36.061Z,14.30
2019-05-05T10:10:06.111Z,14.83
2019-05-05T10:12:34.585Z,12.63
2019-05-05T10:15:07.405Z,15.07
2019-05-05T10:17:34.881Z,15.73
2019-05-05T10:20:04.970Z,14.27
2019-05-05T10:22:34.296Z,15.00
2019-05-05T10:25:06.056Z,15.30
2019-05-05T10:27:44.362Z,11.60
2019-05-05T10:30:06.885Z,15.30
2019-05-05T10:32:35.278Z,17.90
2019-05-05T10:35:05.373Z,14.03
2019-05-05T10:37:34.680Z,14.57
2019-05-05T10:40:07.053Z,12.23
2019-05-05T10:42:50.304Z,16.27
2019-05-05T10:45:24.226Z,12.70
2019-05-05T10:47:52.969Z,16.53
2019-05-05T10:50:21.377Z,11.87
2019-05-05T10:52:49.747Z,9.17
2019-05-05T10:55:19.688Z,10.60
2019-05-05T10:57:48.072Z,10.80
2019-05-05T11:00:20.749Z,10.73
2019-05-05T11:02:49.140Z,11.43
2019-05-05T11:05:17.660Z,8.83
2019-05-05T11:07:46.185Z,11.47
2019-05-05T11:10:17.669Z,13.60
2019-05-05T11:12:46.061Z,10.93
2019-05-05T11:15:14.692Z,13.03
2019-05-05T11:17:43.906Z,14.13
2019-05-05T11:20:14.527Z,12.90
2019-05-05T11:22:43.806Z,10.73
2019-05-05T11:25:13.964Z,8.80
2019-05-05T11:27:43.994Z,9.77
2019-05-05T11:30:17.750Z,10.40
2019-05-05T11:33:04.233Z,7.60
2019-05-05T11:35:40.517Z,10.63
2019-05-05T11:38:08.939Z,6.03
2019-05-05T11:40:37.329Z,11.83
2019-05-05T11:43:05.720Z,8.37
2019-05-05T11:45:34.517Z,9.47
2019-05-05T11:48:03.568Z,11.47
2019-05-05T11:50:34.085Z,6.70
2019-05-05T11:53:03.891Z,9.13
2019-05-05T11:55:33.554Z,8.03
2019-05-05T11:58:03.588Z,10.30
2019-05-05T12:00:34.589Z,9.67
2019-05-05T12:03:03.807Z,8.53
2019-05-05T12:05:33.664Z,8.37
2019-05-05T12:08:03.910Z,7.80
2019-05-05T12:10:35.413Z,8.90
2019-05-05T12:13:05.441Z,8.73
2019-05-05T12:15:34.192Z,7.93
2019-05-05T12:18:03.807Z,8.90
2019-05-05T12:20:38.908Z,8.00
2019-05-05T12:23:07.874Z,10.37
2019-05-05T12:25:50.673Z,9.70
2019-05-05T12:28:43.894Z,6.43
2019-05-05T12:31:14.130Z,8.10
2019-05-05T12:33:44.186Z,6.00
2019-05-05T12:36:15.075Z,7.85
2019-05-05T12:38:43.934Z,7.12
2019-05-05T12:41:14.611Z,6.65
2019-05-05T12:43:44.119Z,8.88
2019-05-05T12:46:14.365Z,9.63
2019-05-05T12:48:44.409Z,10.60
2019-05-05T12:51:14.691Z,9.97
2019-05-05T12:53:42.918Z,11.17
2019-05-05T12:56:11.330Z,9.07
2019-05-05T12:58:39.976Z,11.07
2019-05-05T13:01:19.152Z,10.20
2019-05-05T13:03:48.151Z,8.30
2019-05-05T13:06:16.661Z,5.87
2019-05-05T13:08:45.125Z,9.03
2019-05-05T13:19:47.769Z,5.10
2019-05-05T13:22:17.813Z,6.83
2019-05-05T13:24:56.897Z,9.63
2019-05-05T13:27:26.948Z,5.40
2019-05-05T13:29:55.346Z,5.50
2019-05-05T13:32:24.721Z,7.07
2019-05-05T13:34:54.600Z,3.73
2019-05-05T13:37:24.995Z,5.58
2019-05-05T13:39:53.976Z,4.65
2019-05-05T13:42:24.325Z,6.90
2019-05-05T13:45:03.992Z,5.35
2019-05-05T13:47:34.399Z,9.13
2019-05-05T13:50:15.776Z,10.00
2019-05-05T13:52:44.289Z,10.97
2019-05-05T13:55:14.257Z,10.60
2019-05-05T13:57:44.420Z,13.57
2019-05-05T14:00:15.353Z,13.80
2019-05-05T14:02:43.967Z,16.63
2019-05-05T14:05:13.472Z,12.53
2019-05-05T14:07:43.681Z,15.20
2019-05-05T14:10:14.410Z,18.87
2019-05-05T14:12:43.838Z,16.13
2019-05-05T14:15:17.297Z,18.53
2019-05-05T14:17:46.440Z,16.03
2019-05-05T14:20:15.661Z,16.80
2019-05-05T14:22:44.118Z,11.87
2019-05-05T14:25:15.081Z,15.20
2019-05-05T14:27:54.017Z,12.33
2019-05-05T14:30:37.016Z,10.70
2019-05-05T14:33:07.128Z,8.13
2019-05-05T14:35:37.157Z,11.33
2019-05-05T14:38:07.185Z,9.53
2019-05-05T14:40:35.581Z,11.33
2019-05-05T14:43:04.508Z,11.33
2019-05-05T14:45:34.010Z,9.30
2019-05-05T14:48:03.950Z,8.93
2019-05-05T14:50:34.742Z,10.33
2019-05-05T14:53:04.046Z,11.33
2019-05-05T14:55:33.625Z,9.63
2019-05-05T14:58:05.127Z,13.83
2019-05-05T15:00:33.833Z,10.80
2019-05-05T15:03:03.664Z,10.30
2019-05-05T15:05:40.460Z,13.57
2019-05-05T15:08:10.553Z,10.90
2019-05-05T15:10:46.778Z,9.73
2019-05-05T15:13:15.159Z,9.23
2019-05-05T15:15:43.569Z,15.33
2019-05-05T15:18:11.949Z,14.77
2019-05-05T15:20:40.483Z,12.70
2019-05-05T15:23:08.925Z,14.03
2019-05-05T15:25:37.327Z,13.13
2019-05-05T15:28:05.801Z,9.23
2019-05-05T15:30:34.200Z,16.17
2019-05-05T15:33:04.508Z,12.77
2019-05-05T15:35:33.964Z,13.97
2019-05-05T15:38:04.500Z,11.33
2019-05-05T15:40:33.736Z,9.80
2019-05-05T15:43:03.823Z,8.17
2019-05-05T15:45:34.101Z,11.00
2019-05-05T15:48:04.596Z,7.50
2019-05-05T15:50:32.973Z,8.17
2019-05-05T15:53:01.435Z,11.70
2019-05-05T15:55:29.844Z,10.63
2019-05-05T15:57:58.245Z,10.73
2019-05-05T16:00:26.773Z,7.57
2019-05-05T16:02:55.209Z,13.03
2019-05-05T16:05:24.266Z,13.30
2019-05-05T16:07:54.256Z,12.03
2019-05-05T16:10:25.214Z,9.13
2019-05-05T16:12:54.196Z,12.00
2019-05-05T16:15:30.096Z,9.77
2019-05-05T16:18:00.124Z,11.83
2019-05-05T16:20:44.369Z,10.73
2019-05-05T16:23:30.213Z,16.20
2019-05-05T16:25:58.866Z,11.10
2019-05-05T16:28:27.396Z,18.73
2019-05-05T16:30:56.136Z,15.27
2019-05-05T16:33:24.660Z,9.73
2019-05-05T16:35:53.067Z,12.63
2019-05-05T16:38:21.458Z,13.97
2019-05-05T16:40:49.849Z,11.70
2019-05-05T16:43:18.256Z,14.50
2019-05-05T16:45:46.649Z,12.80
2019-05-05T16:48:15.052Z,10.57
2019-05-05T16:50:44.512Z,11.77
2019-05-05T16:53:17.560Z,12.97
2019-05-05T16:55:47.601Z,12.13
2019-05-05T16:58:16.872Z,12.50
2019-05-05T17:00:45.268Z,15.23
2019-05-05T17:03:13.668Z,16.00
2019-05-05T17:05:44.131Z,15.97
2019-05-05T17:08:13.944Z,12.77
2019-05-05T17:10:43.515Z,15.20
2019-05-05T17:13:24.149Z,15.93
2019-05-05T17:15:57.169Z,14.83
2019-05-05T17:18:35.187Z,10.03
2019-05-05T17:21:04.075Z,11.90
2019-05-05T17:23:34.174Z,16.50
2019-05-05T17:26:02.609Z,14.80
2019-05-05T17:28:31.001Z,11.53
2019-05-05T17:30:59.397Z,14.03
2019-05-05T17:33:27.789Z,14.77
2019-05-05T17:35:56.188Z,12.80
2019-05-05T17:38:24.595Z,12.10
2019-05-05T17:40:54.628Z,14.40
2019-05-05T17:43:27.699Z,16.90
2019-05-05T17:46:03.867Z,13.00
2019-05-05T17:48:37.065Z,13.67
2019-05-05T17:51:13.910Z,13.90
2019-05-05T17:53:44.569Z,23.43
2019-05-05T17:56:14.604Z,13.60
2019-05-05T17:58:44.499Z,12.23
2019-05-05T18:01:13.257Z,13.43
2019-05-05T18:03:43.547Z,16.27
2019-05-05T18:06:31.981Z,9.20
2019-05-05T18:09:02.041Z,12.73
2019-05-05T18:11:48.423Z,8.97
2019-05-05T18:14:24.592Z,12.40
2019-05-05T18:16:54.268Z,13.03
2019-05-05T18:19:24.761Z,10.00
2019-05-05T18:21:55.047Z,11.40
2019-05-05T18:24:24.290Z,9.73
2019-05-05T18:26:53.785Z,9.73
2019-05-05T18:29:24.257Z,12.20
2019-05-05T18:31:53.591Z,10.27
2019-05-05T18:34:23.592Z,9.70
2019-05-05T18:36:54.239Z,12.27
2019-05-05T18:39:24.534Z,9.93
2019-05-05T18:42:13.971Z,12.67
2019-05-05T18:44:44.441Z,14.80
2019-05-05T18:47:20.256Z,10.97
2019-05-05T18:49:48.644Z,13.53
2019-05-05T18:52:17.045Z,10.77
2019-05-05T18:54:45.432Z,11.30
2019-05-05T18:57:13.889Z,11.53
2019-05-05T18:59:44.501Z,11.83
2019-05-05T19:02:14.397Z,9.23
2019-05-05T19:04:48.559Z,13.43
2019-05-05T19:07:20.373Z,12.37
2019-05-05T19:09:54.019Z,9.47
2019-05-05T19:12:18.874Z,12.53
2019-05-05T19:14:47.275Z,11.83
2019-05-05T19:17:15.658Z,12.57
2019-05-05T19:19:47.089Z,13.00
2019-05-05T19:22:17.210Z,14.97
2019-05-05T19:24:45.601Z,11.80
2019-05-05T19:27:14.259Z,10.67
2019-05-05T19:29:44.176Z,16.23
2019-05-05T19:32:13.400Z,10.53
2019-05-05T19:34:43.513Z,13.43
2019-05-05T19:37:14.032Z,15.10
2019-05-05T19:39:42.855Z,11.57
2019-05-05T19:42:11.269Z,12.77
2019-05-05T19:44:39.652Z,14.77
2019-05-05T19:47:15.381Z,14.57
2019-05-05T19:49:45.457Z,13.07
2019-05-05T19:52:13.935Z,13.70
2019-05-05T19:54:46.869Z,10.67
2019-05-05T19:57:14.297Z,15.57
2019-05-05T19:59:44.576Z,11.87
2019-05-05T20:02:12.673Z,14.93
2019-05-05T20:04:41.061Z,19.30
2019-05-05T20:07:09.449Z,13.07
2019-05-05T20:09:37.837Z,13.50
2019-05-05T20:12:06.241Z,14.90
2019-05-05T20:14:34.633Z,14.33
2019-05-05T20:17:10.653Z,16.37
2019-05-05T20:19:40.690Z,15.30
2019-05-05T20:22:09.096Z,15.40
2019-05-05T20:24:37.482Z,19.53
2019-05-05T20:27:05.878Z,24.10
2019-05-05T20:29:37.363Z,15.43
2019-05-05T20:32:04.529Z,17.13
2019-05-05T20:34:34.550Z,15.17
2019-05-05T20:37:10.352Z,16.73
2019-05-05T20:39:38.730Z,13.63
2019-05-05T20:42:09.720Z,15.13
2019-05-05T20:44:39.688Z,19.03
2019-05-05T20:47:08.094Z,18.33
2019-05-05T20:49:36.476Z,17.63
2019-05-05T20:52:04.862Z,20.53
2019-05-05T20:54:33.337Z,15.70
2019-05-05T20:57:01.782Z,16.63
2019-05-05T20:59:31.002Z,16.03
2019-05-05T21:02:00.244Z,22.60
2019-05-05T21:04:28.633Z,19.03
2019-05-05T21:06:57.024Z,16.93
2019-05-05T21:09:25.476Z,20.23
2019-05-05T21:11:54.797Z,18.33
2019-05-05T21:14:33.720Z,19.17
2019-05-05T21:16:54.727Z,16.33
2019-05-05T21:19:24.792Z,17.13
2019-05-05T21:21:55.349Z,19.73
2019-05-05T21:24:24.035Z,20.33
2019-05-05T21:26:54.652Z,19.53
2019-05-05T21:29:23.723Z,19.30
2019-05-05T21:31:54.804Z,22.17
2019-05-05T21:34:24.774Z,24.43
2019-05-05T21:36:54.063Z,19.20
2019-05-05T21:39:24.894Z,19.40
2019-05-05T21:41:53.240Z,24.47
2019-05-05T21:44:21.628Z,19.07
2019-05-05T21:46:50.013Z,23.50
2019-05-05T21:49:18.417Z,24.13
2019-05-05T21:51:48.442Z,15.80
2019-05-05T21:54:24.636Z,19.23
2019-05-05T21:56:54.661Z,16.47
2019-05-05T21:59:23.659Z,19.73
2019-05-05T22:01:52.566Z,24.07
2019-05-05T22:04:20.949Z,19.57
2019-05-05T22:06:49.336Z,20.63
2019-05-05T22:09:17.724Z,20.30
2019-05-05T22:11:46.122Z,21.17
2019-05-05T22:14:14.513Z,15.93
2019-05-05T22:16:44.569Z,20.10
2019-05-05T22:19:14.579Z,16.30
2019-05-05T22:21:45.746Z,14.30
2019-05-05T22:24:21.751Z,17.20
2019-05-05T22:26:50.128Z,19.80
2019-05-05T22:29:18.608Z,17.73
2019-05-05T22:31:47.068Z,19.23
2019-05-05T22:34:15.441Z,21.57
2019-05-05T22:36:44.802Z,23.40
2019-05-05T22:39:17.054Z,22.03
2019-05-05T22:41:45.132Z,18.20
2019-05-05T22:44:14.040Z,16.17
2019-05-05T22:46:42.993Z,22.33
2019-05-05T22:49:11.466Z,24.00
2019-05-05T22:51:39.924Z,23.23
2019-05-05T22:54:09.067Z,27.03
2019-05-05T22:56:37.773Z,24.20
2019-05-05T22:59:06.397Z,22.77
2019-05-05T23:01:34.793Z,21.03
2019-05-05T23:04:20.949Z,19.27
2019-05-05T23:06:50.993Z,17.73
2019-05-05T23:09:19.388Z,20.27
2019-05-05T23:11:47.772Z,25.00
2019-05-05T23:14:28.437Z,24.33
2019-05-05T23:17:10.049Z,24.20
2019-05-05T23:19:48.990Z,25.33
2019-05-05T23:22:19.021Z,21.83
2019-05-05T23:25:05.538Z,28.87
2019-05-05T23:27:50.829Z,33.73
2019-05-05T23:30:37.850Z,33.33
2019-05-05T23:32:54.954Z,34.67
2019-05-05T23:35:23.905Z,28.97
2019-05-05T23:37:55.052Z,32.97
2019-05-05T23:40:28.036Z,34.83
2019-05-05T23:42:56.443Z,36.17
2019-05-05T23:45:25.100Z,32.80
2019-05-05T23:47:54.682Z,32.80
2019-05-05T23:50:24.541Z,45.00
2019-05-05T23:52:54.581Z,35.50
2019-05-05T23:55:23.938Z,33.03
2019-05-05T23:57:54.601Z,43.17
